Flight Track Log - Related Links

Times and Time Zones

All times are in EST time to prevent confusion due to time zone crossing. See the CSC8515 flight status page for this flight to view local times or setup timezone preferences in your user account.

Time Position Orientation Groundspeed Altitude Reporting Facility
EST Latitude Longitude Course Direction KTS MPH feet Rate Location/Type
Wed 04:22:00 AM 27.4396 103.1149 52° Northeast  Level Estimated
Wed 04:23:00 AM 27.6180 103.3806 53° Northeast  Level Estimated
Wed 04:24:00 AM 27.6822 103.4765 53° Northeast  Level Estimated
Wed 04:25:00 AM 27.7462 103.5725 53° Northeast  Level Estimated
Wed 04:26:00 AM 27.8102 103.6686 53° Northeast  Level Estimated
Wed 04:27:00 AM 27.8741 103.7648 53° Northeast  Level Estimated
Wed 04:28:00 AM 27.9380 103.8611 53° Northeast  Level Estimated
Wed 04:29:00 AM 28.0017 103.9576 53° Northeast  Level Estimated
Wed 04:30:00 AM 28.0654 104.0541 53° Northeast  Level Estimated
Wed 04:31:00 AM 28.1291 104.1508 53° Northeast  Level Estimated
Wed 04:32:00 AM 28.1927 104.2476 53° Northeast  Level Estimated
Wed 04:33:00 AM 28.2562 104.3445 53° Northeast  Level Estimated
Wed 04:34:00 AM 28.3196 104.4415 53° Northeast  Level Estimated
Wed 04:35:00 AM 28.3830 104.5386 53° Northeast  Level Estimated
Wed 04:36:00 AM 28.4463 104.6359 53° Northeast  Level Estimated
Wed 04:37:00 AM 28.5095 104.7332 54° Northeast  Level Estimated
Wed 04:38:00 AM 28.5727 104.8307 54° Northeast  Level Estimated
Wed 04:39:00 AM 28.6358 104.9283 54° Northeast  Level Estimated
Wed 04:40:00 AM 28.6988 105.0260 54° Northeast  Level Estimated
Wed 04:41:00 AM 28.7617 105.1238 54° Northeast  Level Estimated
Wed 04:42:00 AM 28.8246 105.2218 54° Northeast  Level Estimated
Wed 04:43:00 AM 28.8874 105.3199 54° Northeast  Level Estimated
Wed 04:44:00 AM 28.9502 105.4181 54° Northeast  Level Estimated
Wed 04:45:00 AM 29.0128 105.5163 54° Northeast  Level Estimated
Wed 04:46:00 AM 29.0754 105.6148 54° Northeast  Level Estimated
Wed 04:47:00 AM 29.1380 105.7133 54° Northeast  Level Estimated
Wed 04:48:00 AM 29.2004 105.8120 54° Northeast  Level Estimated
Wed 04:49:00 AM 29.2628 105.9108 54° Northeast  Level Estimated
Wed 04:50:00 AM 29.3251 106.0097 54° Northeast  Level Estimated
Wed 04:51:00 AM 29.3874 106.1087 54° Northeast  Level Estimated
Wed 04:52:00 AM 29.4495 106.2078 54° Northeast  Level Estimated
Wed 04:53:00 AM 29.5116 106.3071 54° Northeast  Level Estimated
Wed 04:54:00 AM 29.5736 106.4065 54° Northeast  Level Estimated
Wed 04:55:00 AM 29.6356 106.5060 54° Northeast  Level Estimated
Wed 04:56:00 AM 29.6974 106.6056 54° Northeast  Level Estimated
Wed 04:57:00 AM 29.7194 106.6410 54° Northeast  Level Estimated
Wed 04:58:00 AM 29.7194 106.6410 60° Northeast  Level Estimated
Wed 04:59:00 AM 29.7194 106.6410 60° Northeast  Level Estimated
Wed 05:00:00 AM 29.7194 106.6410 60° Northeast  Level Estimated
Wed 05:01:00 AM 29.7194 106.6410 60° Northeast  Level Estimated
Wed 05:02:00 AM 29.7194 106.6410 60° Northeast  Level Estimated
Wed 05:03:00 AM 29.7194 106.6410 60° Northeast  Level Estimated
Wed 05:04:00 AM 29.7194 106.6410 60° Northeast  Level Estimated
Wed 05:05:00 AM 29.7194 106.6410 60° Northeast  Level Estimated
Wed 05:06:00 AM 29.7194 106.6410 60° Northeast  Level Estimated
Wed 05:07:00 AM 29.7194 106.6410 60° Northeast  Level Estimated
Wed 05:08:00 AM 29.7194 106.6410 60° Northeast  Level Estimated
Wed 05:09:00 AM 29.7194 106.6410 60° Northeast  Level Estimated
Wed 05:10:00 AM 29.7194 106.6410 60° Northeast  Level Estimated
Wed 05:11:00 AM 29.7194 106.6410 60° Northeast  Level Estimated
Wed 05:12:00 AM 29.7194 106.6410 60° Northeast  Level Estimated
Wed 05:13:00 AM 29.7194 106.6410 60° Northeast  Level Estimated
Wed 05:14:00 AM 29.7194 106.6410 60° Northeast  Level Estimated
Wed 05:15:00 AM 29.7194 106.6410 60° Northeast  Level Estimated
Wed 05:16:00 AM 29.7194 106.6410 60° Northeast  Level Estimated
Wed 05:17:00 AM 29.7194 106.6410 60° Northeast  Level Estimated
Wed 05:18:00 AM 29.7194 106.6410 60° Northeast  Level Estimated
Wed 05:19:00 AM 29.7194 106.6410 60° Northeast  Level Estimated
Wed 05:20:00 AM 29.7194 106.6410 60° Northeast  Level Estimated
Wed 05:21:00 AM 29.7194 106.6410 60° Northeast  Level Estimated
Wed 05:22:00 AM 29.7194 106.6410 60° Northeast  Level Estimated
Wed 05:23:00 AM 29.7194 106.6410 60° Northeast  Level Estimated

Login

Don't have an account? Register now (free) for customized features, flight alerts, and more!